Time;durP1;ratioP1;P1;durP2;ratioP2;P2;SDS_P1;SDS_P2;PMS_P1;PMS_P2;Temp;Humidity;BMP_temperature;BMP_pressure;BME280_temperature;BME280_humidity;BME280_pressure;Samples;Min_cycle;Max_cycle;Signal;HPM_P1;HPM_P2
2022/08/09 00:01:39;;;;;;;6.55;2.75;;;;;;;-144.47;38.92;53044.78;5092384;28;20027;-86
2022/08/09 00:04:04;;;;;;;7.60;2.35;;;;;;;-144.47;38.95;53084.50;5089947;28;20051;-85
2022/08/09 00:06:30;;;;;;;9.10;2.50;;;;;;;-144.47;38.95;53054.72;5113411;28;20027;-86
2022/08/09 00:08:56;;;;;;;9.25;2.88;;;;;;;-144.47;39.11;53042.78;5117303;28;20028;-86
2022/08/09 00:11:22;;;;;;;6.97;2.65;;;;;;;-144.47;39.19;53088.47;5100273;28;20028;-85
2022/08/09 00:13:49;;;;;;;7.07;2.75;;;;;;;-144.47;39.24;53034.84;5082176;28;20141;-86
2022/08/09 00:16:14;;;;;;;5.85;2.38;;;;;;;-144.47;39.29;53052.72;5112217;28;20058;-87
2022/08/09 00:18:39;;;;;;;6.18;2.30;;;;;;;-144.47;39.33;53058.69;5111187;28;20027;-86
2022/08/09 00:21:07;;;;;;;6.25;2.60;;;;;;;-144.47;39.34;53070.59;5093180;28;20020;-87
2022/08/09 00:23:33;;;;;;;7.97;2.40;;;;;;;-144.47;39.49;53050.75;5073055;28;20486;-87
2022/08/09 00:25:58;;;;;;;4.80;2.20;;;;;;;-144.47;39.54;53060.66;5075137;28;20024;-87
2022/08/09 00:28:24;;;;;;;12.25;2.55;;;;;;;-144.47;39.65;53066.63;5089762;28;20490;-84
2022/08/09 00:30:51;;;;;;;5.70;2.47;;;;;;;-144.47;39.81;53050.75;5097178;28;20061;-85
2022/08/09 00:33:17;;;;;;;5.82;2.60;;;;;;;-144.47;39.81;53040.81;5100873;28;20031;-86
2022/08/09 00:35:42;;;;;;;4.55;2.20;;;;;;;-144.47;40.01;53038.81;5079836;28;20031;-85
2022/08/09 00:38:16;;;;;;;5.20;2.78;;;;;;;-144.47;40.16;53100.41;5101279;28;20080;-86
2022/08/09 00:40:42;;;;;;;5.05;2.42;;;;;;;-144.47;40.14;53046.75;5098943;28;20020;-88
2022/08/09 00:43:10;;;;;;;7.82;2.58;;;;;;;-144.47;40.28;53068.63;5077310;28;20024;-87
2022/08/09 00:45:38;;;;;;;5.78;2.72;;;;;;;-144.47;40.38;53032.88;5078300;28;20024;-86
2022/08/09 00:48:05;;;;;;;6.38;2.67;;;;;;;-144.47;40.46;53068.63;5077248;28;20024;-86
2022/08/09 00:50:47;;;;;;;10.70;3.17;;;;;;;-144.47;40.58;53078.53;5079816;28;20024;-86
2022/08/09 00:53:21;;;;;;;6.22;2.38;;;;;;;-144.47;40.52;53072.59;5112227;28;20024;-86
2022/08/09 00:55:56;;;;;;;9.73;2.53;;;;;;;-144.47;40.61;53070.59;5071822;28;20028;-86
2022/08/09 00:58:25;;;;;;;5.53;2.58;;;;;;;-144.47;40.83;53092.44;5074927;28;20027;-86
2022/08/09 01:01:23;;;;;;;7.57;2.40;;;;;;;-144.47;40.68;53080.53;5075746;28;20043;-88
2022/08/09 01:04:10;;;;;;;8.55;2.83;;;;;;;-144.47;40.99;53056.69;5081328;28;20019;-86
2022/08/09 01:06:53;;;;;;;5.53;2.75;;;;;;;-144.47;40.85;53048.75;5115890;28;20034;-86
2022/08/09 01:09:30;;;;;;;7.80;2.60;;;;;;;-144.47;41.10;53078.53;5096723;28;20023;-86
2022/08/09 01:12:11;;;;;;;5.28;2.80;;;;;;;-144.47;41.17;53078.53;5084123;28;20363;-86
2022/08/09 01:15:01;;;;;;;13.98;2.80;;;;;;;-144.47;41.08;53052.72;5084945;28;20051;-86
2022/08/09 01:17:34;;;;;;;19.65;2.80;;;;;;;-144.47;41.10;53064.66;5103102;28;20020;-86
2022/08/09 01:20:29;;;;;;;8.07;2.60;;;;;;;-144.47;41.25;53078.53;5088015;28;20118;-85
2022/08/09 01:23:30;;;;;;;5.00;2.55;;;;;;;-144.47;41.28;53120.25;5057814;28;20063;-87
2022/08/09 01:26:10;;;;;;;7.78;2.60;;;;;;;-144.47;41.33;53056.69;5092884;28;20059;-86
2022/08/09 01:28:39;;;;;;;7.63;2.58;;;;;;;-144.47;41.50;53060.66;5084118;28;20099;-86
2022/08/09 01:31:13;;;;;;;6.53;2.85;;;;;;;-144.47;41.53;53080.53;5074078;28;20130;-86
2022/08/09 01:33:41;;;;;;;8.52;2.78;;;;;;;-144.47;41.68;53098.41;5094673;28;20020;-86
2022/08/09 01:36:10;;;;;;;7.03;2.70;;;;;;;-144.47;41.76;53046.75;5099728;28;20134;-86
2022/08/09 01:38:41;;;;;;;6.85;2.85;;;;;;;-144.47;41.92;53080.53;5080129;28;20070;-87
2022/08/09 01:41:18;;;;;;;9.75;2.90;;;;;;;-144.47;42.05;53068.63;5098274;28;20028;-87
2022/08/09 01:43:48;;;;;;;9.77;3.17;;;;;;;-144.47;42.08;53062.66;5082130;28;20471;-87
2022/08/09 01:46:15;;;;;;;9.90;2.88;;;;;;;-144.47;42.15;53082.53;5073143;28;20118;-86
2022/08/09 01:48:43;;;;;;;7.00;2.90;;;;;;;-144.47;42.32;53106.34;5075770;28;20043;-87
2022/08/09 01:51:12;;;;;;;;;;;;;;;-144.47;42.38;53090.47;5078515;28;20020;-87
2022/08/09 01:53:47;;;;;;;7.32;2.50;;;;;;;-144.47;42.38;53086.50;5073063;28;19946;-86
2022/08/09 01:56:17;;;;;;;9.00;2.63;;;;;;;-144.47;42.71;53118.28;5072926;28;20032;-86
2022/08/09 01:58:45;;;;;;;10.90;2.65;;;;;;;-144.47;42.98;53086.50;5060903;28;20114;-87
2022/08/09 02:01:14;;;;;;;8.07;2.75;;;;;;;-144.47;43.09;53102.38;5095063;28;20106;-87
2022/08/09 02:03:49;;;;;;;10.43;2.92;;;;;;;-144.47;43.14;53086.50;5110497;28;20024;-87
2022/08/09 02:07:07;;;;;;;7.93;2.65;;;;;;;-144.47;43.17;53110.31;5075708;28;20111;-87
2022/08/09 02:09:03;;;;;;;5.15;2.40;;;;;;;-144.47;43.34;53074.56;5094648;28;20039;-87
2022/08/09 02:11:29;;;;;;;13.00;3.10;;;;;;;-144.47;43.64;53110.31;5077067;28;20470;-87
2022/08/09 02:13:54;;;;;;;8.60;3.35;;;;;;;-144.47;43.96;53106.34;5079284;28;20028;-87
2022/08/09 02:16:20;;;;;;;42.35;9.57;;;;;;;-144.47;44.12;53120.25;5083410;28;20058;-87
2022/08/09 02:18:46;;;;;;;7.65;2.80;;;;;;;-144.47;44.42;53094.44;5113339;28;20034;-87
2022/08/09 02:21:15;;;;;;;8.80;3.53;;;;;;;-144.47;44.88;53124.22;5100181;28;20099;-87
2022/08/09 02:23:49;;;;;;;;;;;;;;;-144.47;44.90;53098.41;5076705;28;20051;-87
2022/08/09 02:26:18;;;;;;;7.22;3.00;;;;;;;-144.47;44.88;53092.44;5080120;28;20298;-88
2022/08/09 02:28:49;;;;;;;7.63;3.60;;;;;;;-144.47;45.21;53056.69;5086881;28;20077;-87
2022/08/09 02:31:29;;;;;;;7.90;3.22;;;;;;;-144.47;45.35;53110.31;5077327;28;20024;-87
2022/08/09 02:34:01;;;;;;;7.53;2.53;;;;;;;-144.47;45.45;53100.41;5095466;28;20020;-87
2022/08/09 02:36:52;;;;;;;13.35;4.60;;;;;;;-144.47;45.24;53062.66;5093894;28;20028;-86
2022/08/09 02:39:21;;;;;;;9.57;3.65;;;;;;;-144.47;45.35;53062.66;5077290;28;20031;-86
2022/08/09 02:41:55;;;;;;;10.70;3.90;;;;;;;-144.47;45.28;53110.31;5076143;28;20294;-87
2022/08/09 02:44:36;;;;;;;10.23;4.25;;;;;;;-144.47;45.59;53122.25;5071581;28;20031;-87
2022/08/09 02:47:14;;;;;;;12.23;5.82;;;;;;;-144.47;45.70;53100.41;5100429;28;20035;-87
2022/08/09 02:50:04;;;;;;;14.55;5.97;;;;;;;-144.47;45.73;53106.34;5080642;28;20076;-87
2022/08/09 02:52:52;;;;;;;19.65;6.70;;;;;;;-144.47;45.82;53118.28;5076876;28;20073;-86
2022/08/09 02:55:43;;;;;;;25.05;7.25;;;;;;;-144.47;45.95;53090.47;5089112;28;20474;-87
2022/08/09 02:58:14;;;;;;;21.23;7.22;;;;;;;-144.47;46.05;53078.53;5088224;28;20027;-87
2022/08/09 03:00:56;;;;;;;21.17;6.63;;;;;;;-144.47;46.12;53094.44;5089483;28;20054;-87
2022/08/09 03:03:40;;;;;;;15.98;5.43;;;;;;;-144.47;46.48;53088.47;5076463;28;20020;-87
2022/08/09 03:06:16;;;;;;;17.10;6.15;;;;;;;-144.47;46.65;53086.50;5082853;28;20043;-86
2022/08/09 03:08:45;;;;;;;12.00;5.35;;;;;;;-144.47;46.30;53062.66;5108348;28;20028;-86
2022/08/09 03:11:17;;;;;;;8.25;4.10;;;;;;;-144.47;46.00;53080.53;5075939;28;20051;-87
2022/08/09 03:13:46;;;;;;;13.07;4.32;;;;;;;-144.47;46.28;53120.25;5076438;28;20032;-87
2022/08/09 03:16:13;;;;;;;8.38;4.60;;;;;;;-144.47;46.31;53080.53;5075166;28;20024;-86
2022/08/09 03:18:39;;;;;;;10.60;5.28;;;;;;;-144.47;46.08;53114.31;5075667;28;20127;-86
2022/08/09 03:21:10;;;;;;;8.32;3.42;;;;;;;-144.47;46.10;53114.31;5061853;28;20427;-87
2022/08/09 03:23:36;;;;;;;10.77;4.20;;;;;;;-144.47;46.42;53090.47;5055047;28;20028;-87
2022/08/09 03:26:05;;;;;;;9.10;3.88;;;;;;;-144.47;46.24;53120.25;5083869;28;20016;-84
2022/08/09 03:28:32;;;;;;;12.43;4.00;;;;;;;-144.47;46.31;53100.41;5114006;28;20115;-87
2022/08/09 03:30:59;;;;;;;11.27;4.13;;;;;;;-144.47;47.04;53116.28;5093429;28;20126;-86
2022/08/09 03:33:29;;;;;;;8.27;3.75;;;;;;;-144.47;46.92;53146.09;5076880;28;20437;-87
2022/08/09 03:36:03;;;;;;;6.70;3.25;;;;;;;-144.47;46.60;53120.25;5090942;28;20360;-87
2022/08/09 03:38:29;;;;;;;9.18;4.20;;;;;;;-144.47;46.63;53114.31;5114167;28;20047;-87
2022/08/09 03:40:55;;;;;;;12.02;3.83;;;;;;;-144.47;46.48;53122.25;5112842;28;20038;-87
2022/08/09 03:43:26;;;;;;;10.32;3.85;;;;;;;-144.47;46.59;53118.28;5095039;28;20450;-87
2022/08/09 03:45:52;;;;;;;12.20;3.65;;;;;;;-144.47;46.82;53142.09;5111434;28;20035;-85
2022/08/09 03:48:20;;;;;;;9.40;4.13;;;;;;;-144.47;47.01;53108.34;5083722;28;20119;-86
2022/08/09 03:50:48;;;;;;;8.32;3.42;;;;;;;-144.47;47.16;53106.34;5096467;28;20031;-86
2022/08/09 03:53:15;;;;;;;10.02;4.07;;;;;;;-144.47;47.27;53108.34;5101688;28;20517;-87
2022/08/09 03:55:41;;;;;;;10.90;3.75;;;;;;;-144.47;47.34;53152.03;5080774;28;20034;-87
2022/08/09 03:58:07;;;;;;;13.05;4.40;;;;;;;-144.47;47.31;53114.31;5113486;28;20019;-85
2022/08/09 04:00:33;;;;;;;14.70;4.35;;;;;;;-144.47;47.79;53090.47;5107108;28;20020;-86
2022/08/09 04:03:29;;;;;;;;;;;;;;;;;;;;;
2022/08/09 04:06:27;;;;;;;20.67;7.55;;;;;;;-144.47;48.63;53146.09;5092595;28;20020;-88
2022/08/09 04:09:05;;;;;;;21.35;6.57;;;;;;;-144.47;48.61;53132.19;5099982;28;20501;-87
2022/08/09 04:12:04;;;;;;;21.50;6.20;;;;;;;-144.47;48.38;53110.31;5095635;28;20494;-86
2022/08/09 04:14:32;;;;;;;22.27;7.40;;;;;;;-144.47;48.41;53088.47;5113386;28;20031;-85
2022/08/09 04:17:00;;;;;;;21.23;7.10;;;;;;;-144.47;48.50;53098.41;5072917;28;20040;-87
2022/08/09 04:19:26;;;;;;;27.33;8.80;;;;;;;-144.47;48.90;53142.09;5068389;28;20099;-87
2022/08/09 04:21:54;;;;;;;30.40;9.27;;;;;;;-144.47;48.95;53126.22;5092950;28;20030;-85
2022/08/09 04:24:19;;;;;;;37.10;10.18;;;;;;;-144.47;48.81;53096.41;5074036;28;20463;-86
2022/08/09 04:26:45;;;;;;;33.75;10.52;;;;;;;-144.47;48.71;53142.09;5074251;28;20085;-87
2022/08/09 04:29:11;;;;;;;28.48;9.73;;;;;;;-144.47;48.61;53130.19;5092376;28;20035;-87
2022/08/09 04:31:37;;;;;;;28.02;8.90;;;;;;;-144.47;48.71;53144.09;5074668;28;20443;-85
2022/08/09 04:34:33;;;;;;;28.75;7.97;;;;;;;-144.47;48.79;53098.41;5074842;28;20023;-86
2022/08/09 04:37:00;;;;;;;21.10;6.25;;;;;;;-144.47;48.66;53098.41;5074354;28;20035;-87
2022/08/09 04:39:28;;;;;;;15.57;5.70;;;;;;;-144.47;48.69;53124.22;5087903;28;20032;-87
2022/08/09 04:45:32;;;;;;;8.10;4.03;;;;;;;-144.47;49.19;53142.09;5066584;28;20055;-88
2022/08/09 04:47:58;;;;;;;19.20;5.10;;;;;;;-144.47;49.23;53146.09;5072976;28;20387;-86
2022/08/09 04:50:31;;;;;;;15.75;5.43;;;;;;;-144.47;49.43;53148.06;5069725;28;20105;-88
2022/08/09 04:53:00;;;;;;;10.98;4.60;;;;;;;-144.47;49.49;53088.47;5093791;28;20039;-87
2022/08/09 04:55:25;;;;;;;15.60;4.20;;;;;;;-144.47;49.75;53136.16;5074798;28;20032;-87
2022/08/09 05:01:23;;;;;;;14.88;6.05;;;;;;;-144.47;50.09;53122.25;5063730;28;20091;-88
2022/08/09 05:03:49;;;;;;;13.40;4.80;;;;;;;-144.47;50.22;53136.16;5108887;28;20042;-87
2022/08/09 05:06:35;;;;;;;13.35;5.32;;;;;;;-144.47;50.55;53163.97;5098072;28;20019;-90
2022/08/09 05:09:51;;;;;;;14.00;5.25;;;;;;;-144.47;50.38;53110.31;5111098;28;20030;-91
2022/08/09 05:19:12;;;;;;;14.40;5.20;;;;;;;-144.47;50.87;53128.22;5111600;28;20047;-91
2022/08/09 05:22:15;;;;;;;;;;;;;;;;;;;;;
2022/08/09 05:24:57;;;;;;;19.38;4.72;;;;;;;-144.47;51.22;53126.22;5057342;28;20115;-90
2022/08/09 05:31:58;;;;;;;9.23;4.40;;;;;;;-144.47;51.27;53124.22;5109041;28;20102;-90
2022/08/09 05:35:15;;;;;;;;;;;;;;;;;;;;;
2022/08/09 05:38:02;;;;;;;10.27;5.05;;;;;;;-144.47;50.78;53102.38;4903498;29;20119;-88
2022/08/09 05:40:29;;;;;;;14.95;5.72;;;;;;;-144.47;50.49;53098.41;4886108;29;20055;-88
2022/08/09 05:43:24;;;;;;;10.00;4.93;;;;;;;-144.47;50.48;53118.28;4874677;29;20041;-88
2022/08/09 05:46:40;;;;;;;13.25;5.60;;;;;;;-144.47;50.06;53122.25;4884522;29;20064;-88
2022/08/09 05:49:57;;;;;;;16.35;5.03;;;;;;;-144.47;49.75;53126.22;4889943;29;20056;-88
2022/08/09 06:02:02;;;;;;;9.05;4.15;;;;;;;-144.47;48.17;53108.34;4867573;29;20105;-87
2022/08/09 06:04:35;;;;;;;12.57;4.57;;;;;;;-144.47;47.82;53090.47;4973797;23;20032;-67
2022/08/09 06:07:03;;;;;;;18.83;5.60;;;;;;;-144.47;47.53;53114.31;5050886;28;20497;-66
2022/08/09 06:09:29;;;;;;;25.30;7.75;;;;;;;-144.47;47.17;53084.50;5063427;28;20074;-67
2022/08/09 06:11:54;;;;;;;17.77;6.63;;;;;;;-144.47;47.01;53098.41;5071500;28;20494;-67
2022/08/09 06:14:20;;;;;;;15.30;6.35;;;;;;;-144.47;47.42;53096.41;5053624;28;20082;-65
2022/08/09 06:16:45;;;;;;;12.77;6.68;;;;;;;-144.47;47.22;53104.38;5048862;28;20029;-66
2022/08/09 06:19:13;;;;;;;16.05;6.70;;;;;;;-144.47;46.97;53100.41;5038723;28;20107;-68
2022/08/09 06:21:39;;;;;;;14.63;5.57;;;;;;;-144.47;46.59;53094.44;5050082;28;20111;-67
2022/08/09 06:24:04;;;;;;;13.27;6.88;;;;;;;-144.47;46.41;53112.31;5047028;28;20021;-66
2022/08/09 06:26:30;;;;;;;13.23;6.32;;;;;;;-144.47;46.08;53078.53;5048085;28;20119;-67
2022/08/09 06:28:56;;;;;;;13.73;5.90;;;;;;;-144.47;46.06;53122.25;5049051;28;20031;-67
2022/08/09 06:31:21;;;;;;;13.70;4.88;;;;;;;-144.47;45.70;53092.44;5052798;28;20017;-67
2022/08/09 06:33:47;;;;;;;19.40;5.20;;;;;;;-144.47;45.11;53062.66;5047719;28;20047;-66
2022/08/09 06:36:12;;;;;;;13.98;4.50;;;;;;;-144.47;45.79;53072.59;5051826;28;20017;-66
2022/08/09 06:38:39;;;;;;;12.48;4.45;;;;;;;-144.47;46.02;53098.41;5046353;28;20049;-68
2022/08/09 06:41:05;;;;;;;17.33;4.50;;;;;;;-144.47;46.05;53090.47;5050328;28;20135;-66
2022/08/09 06:43:30;;;;;;;8.55;4.40;;;;;;;-144.47;45.08;53078.53;5049963;28;20032;-67
2022/08/09 06:45:55;;;;;;;18.05;4.80;;;;;;;-144.47;45.42;53122.25;5050542;28;20106;-67
2022/08/09 06:48:21;;;;;;;9.15;4.20;;;;;;;-144.47;45.48;53114.31;5043517;28;20021;-66
2022/08/09 06:50:46;;;;;;;12.65;5.25;;;;;;;-144.47;45.54;53088.47;5045802;28;20017;-66
2022/08/09 06:53:12;;;;;;;8.80;4.25;;;;;;;-144.47;45.53;53072.59;5042725;28;20021;-68
2022/08/09 06:55:38;;;;;;;16.63;4.53;;;;;;;-144.47;45.13;53110.31;5044730;28;20098;-67
2022/08/09 06:58:03;;;;;;;14.20;4.75;;;;;;;-144.47;44.76;53084.50;5047581;28;20215;-65
2022/08/09 07:00:29;;;;;;;15.25;4.65;;;;;;;-144.47;44.92;53102.38;5069941;28;20024;-68
2022/08/09 07:02:56;;;;;;;12.38;4.28;;;;;;;-144.47;44.74;53066.63;5046946;28;20025;-70
2022/08/09 07:05:21;;;;;;;11.82;4.38;;;;;;;-144.47;44.89;53072.59;5041874;28;20024;-67
2022/08/09 07:07:47;;;;;;;11.40;4.30;;;;;;;-144.47;44.47;53046.75;5039798;28;20352;-67
2022/08/09 07:10:13;;;;;;;11.00;3.50;;;;;;;-144.47;43.17;53072.59;5043788;28;20025;-67
2022/08/09 07:12:38;;;;;;;12.20;4.22;;;;;;;-144.47;43.12;53056.69;5051773;28;20124;-67
2022/08/09 07:15:04;;;;;;;12.15;4.63;;;;;;;-144.47;43.34;53084.50;5050835;28;20202;-66
2022/08/09 07:17:30;;;;;;;12.10;3.95;;;;;;;-144.47;43.44;53112.31;5044594;28;20032;-69
2022/08/09 07:19:56;;;;;;;12.48;4.43;;;;;;;-144.47;43.44;53130.19;5046516;28;20020;-66
2022/08/09 07:22:22;;;;;;;17.08;4.38;;;;;;;-144.47;43.44;53066.63;5047489;28;20066;-68
2022/08/09 07:24:48;;;;;;;13.95;4.05;;;;;;;-144.47;43.37;53054.72;5046914;28;20017;-67
2022/08/09 07:27:13;;;;;;;19.20;5.80;;;;;;;-144.47;43.74;53074.56;5045802;28;20013;-65
2022/08/09 07:29:39;;;;;;;13.45;4.88;;;;;;;-144.47;43.76;53076.56;5069763;28;20035;-67
2022/08/09 07:32:05;;;;;;;13.65;4.07;;;;;;;-144.47;43.35;53078.53;5070960;28;20085;-67
2022/08/09 07:34:30;;;;;;;11.27;4.72;;;;;;;-144.47;43.92;53094.44;5053957;28;20020;-68
2022/08/09 07:36:55;;;;;;;10.07;4.40;;;;;;;-144.47;43.88;53050.75;5050028;28;20553;-68
2022/08/09 07:39:22;;;;;;;16.25;4.15;;;;;;;-144.47;43.79;53100.41;5049495;28;20049;-68
2022/08/09 07:41:47;;;;;;;8.40;4.05;;;;;;;-144.47;43.64;53082.53;5050442;28;20021;-68
2022/08/09 07:44:13;;;;;;;18.15;4.38;;;;;;;-144.47;42.99;53064.66;5049318;28;20032;-66
2022/08/09 07:46:38;;;;;;;15.00;4.72;;;;;;;-144.47;42.95;53062.66;5049410;28;20042;-67
2022/08/09 07:49:04;;;;;;;12.02;4.05;;;;;;;-144.47;42.35;53038.81;5057058;28;20087;-67
2022/08/09 07:51:29;;;;;;;12.50;4.55;;;;;;;-144.47;42.35;53086.50;5049908;28;20107;-68
2022/08/09 07:53:55;;;;;;;15.07;4.35;;;;;;;-144.47;42.62;53052.72;5048823;28;20469;-65
2022/08/09 07:56:20;;;;;;;15.05;4.70;;;;;;;-144.47;42.90;53086.50;5049154;28;20013;-67
2022/08/09 07:58:45;;;;;;;11.13;4.55;;;;;;;-144.47;42.53;53082.53;5049815;28;20082;-65
2022/08/09 08:01:11;;;;;;;13.32;3.92;;;;;;;-144.47;42.01;53078.53;5050084;28;20037;-66
2022/08/09 08:03:37;;;;;;;9.40;4.10;;;;;;;-144.47;41.31;53050.75;5034033;28;20096;-66
2022/08/09 08:06:03;;;;;;;9.32;4.15;;;;;;;-144.47;42.18;53086.50;5049919;28;20096;-65
2022/08/09 08:08:29;;;;;;;9.65;3.78;;;;;;;-144.47;41.92;53036.84;5047921;28;20040;-67
2022/08/09 08:10:54;;;;;;;9.35;3.58;;;;;;;-144.47;41.81;53062.66;5049696;28;20547;-64
2022/08/09 08:13:19;;;;;;;7.95;3.70;;;;;;;-144.47;41.63;53046.75;5050071;28;20031;-67
2022/08/09 08:15:45;;;;;;;8.52;3.55;;;;;;;-144.47;41.69;53034.84;5049549;28;20510;-66
2022/08/09 08:18:10;;;;;;;12.23;3.70;;;;;;;-144.47;41.44;53046.75;5050798;28;20477;-66
2022/08/09 08:20:36;;;;;;;12.80;3.75;;;;;;;-144.47;41.35;53034.84;5059135;28;20104;-68
2022/08/09 08:23:03;;;;;;;8.50;3.83;;;;;;;-144.47;40.80;53054.72;5048928;28;20103;-64
2022/08/09 08:25:28;;;;;;;13.93;3.97;;;;;;;-144.47;40.63;53062.66;5050682;28;20099;-68
2022/08/09 08:27:54;;;;;;;10.07;3.65;;;;;;;-144.47;40.41;53036.84;5049787;28;20050;-66
2022/08/09 08:30:19;;;;;;;13.40;3.85;;;;;;;-144.47;40.06;53052.72;5050217;28;20386;-67
2022/08/09 08:32:45;;;;;;;7.45;3.90;;;;;;;-144.47;40.04;53050.75;5041067;28;20397;-68
2022/08/09 08:35:10;;;;;;;11.95;3.72;;;;;;;-144.47;40.01;53018.97;5057322;28;20028;-67
2022/08/09 08:37:36;;;;;;;13.85;3.35;;;;;;;-144.47;39.85;53064.66;5030083;28;20613;-69
2022/08/09 08:40:05;;;;;;;8.85;3.58;;;;;;;-144.47;39.00;53022.94;5050072;28;20021;-67
2022/08/09 08:42:32;;;;;;;8.18;3.10;;;;;;;-144.47;38.74;53028.88;5049321;28;20017;-66
2022/08/09 08:44:59;;;;;;;6.90;3.30;;;;;;;-144.47;38.94;53038.81;5049407;28;20543;-67
2022/08/09 08:47:25;;;;;;;8.25;3.08;;;;;;;-144.47;38.54;53024.91;5048703;28;20451;-66
2022/08/09 08:49:53;;;;;;;7.63;2.95;;;;;;;-144.47;38.22;53050.75;5052632;28;20017;-66
2022/08/09 08:52:21;;;;;;;8.35;3.35;;;;;;;-144.47;38.36;53024.91;5048188;28;20087;-65
2022/08/09 08:54:47;;;;;;;7.30;3.10;;;;;;;-144.47;38.44;53046.75;5048984;28;20670;-66
2022/08/09 08:57:13;;;;;;;13.95;3.50;;;;;;;-144.47;38.59;53050.75;5030283;28;20166;-66
2022/08/09 08:59:39;;;;;;;8.35;3.28;;;;;;;-144.47;38.52;53032.88;5052609;28;20017;-67
2022/08/09 09:02:06;;;;;;;8.90;2.83;;;;;;;-144.47;38.46;53038.81;5052622;28;20032;-65
2022/08/09 09:04:32;;;;;;;11.70;3.45;;;;;;;-144.47;38.52;53042.78;5051903;28;20025;-68
2022/08/09 09:07:01;;;;;;;8.05;3.47;;;;;;;-144.47;38.52;53034.84;5050175;28;20473;-67
2022/08/09 09:09:29;;;;;;;8.10;3.72;;;;;;;-144.47;38.24;53022.94;5051816;28;20021;-66
2022/08/09 09:11:57;;;;;;;10.40;3.70;;;;;;;-144.47;38.15;53032.88;5052678;28;20051;-65
2022/08/09 09:14:25;;;;;;;11.18;3.33;;;;;;;-144.47;37.28;53022.94;5053151;28;20017;-64
2022/08/09 09:16:51;;;;;;;10.30;3.03;;;;;;;-144.47;37.15;52991.16;5052250;28;20017;-68
2022/08/09 09:19:16;;;;;;;10.35;3.40;;;;;;;-144.47;36.88;53036.84;5051946;28;20060;-66
2022/08/09 09:22:03;;;;;;;16.63;4.07;;;;;;;-144.47;36.80;52985.19;5052546;28;20067;-68
2022/08/09 09:24:32;;;;;;;10.88;3.50;;;;;;;-144.47;36.64;53028.88;5033881;28;20032;-65
2022/08/09 09:26:59;;;;;;;9.00;3.35;;;;;;;-144.47;36.28;53044.78;5052056;28;20020;-65
2022/08/09 09:29:30;;;;;;;16.65;4.35;;;;;;;-144.47;36.55;53036.84;5052913;28;20032;-66
2022/08/09 09:31:56;;;;;;;10.45;3.97;;;;;;;-144.47;36.34;52999.09;5052562;28;20068;-68
2022/08/09 09:34:21;;;;;;;13.02;3.63;;;;;;;-144.47;36.06;53018.97;5057643;28;20024;-69
2022/08/09 09:36:47;;;;;;;13.77;3.55;;;;;;;-144.47;36.30;52991.16;5052052;28;20023;-65
2022/08/09 09:39:12;;;;;;;13.48;3.08;;;;;;;-144.47;36.16;53011.00;5051492;28;20518;-68
2022/08/09 09:41:37;;;;;;;10.55;3.83;;;;;;;-144.47;36.08;52999.09;5052513;28;20025;-68
2022/08/09 09:44:05;;;;;;;11.88;3.70;;;;;;;-144.47;36.14;52981.22;5048169;28;20067;-67
2022/08/09 09:46:35;;;;;;;9.55;3.97;;;;;;;-144.47;36.13;52987.19;5051647;28;20104;-66
2022/08/09 09:49:05;;;;;;;21.42;4.70;;;;;;;-144.47;35.83;53030.88;5053830;28;20021;-67
2022/08/09 09:51:32;;;;;;;13.10;3.30;;;;;;;-144.47;35.58;52993.13;5052267;28;20017;-67
2022/08/09 09:54:05;;;;;;;11.45;3.80;;;;;;;-144.47;36.01;53013.00;5051066;28;20020;-65
2022/08/09 09:56:39;;;;;;;19.63;4.45;;;;;;;-144.47;35.57;53032.88;5051087;28;20017;-65
2022/08/09 09:59:06;;;;;;;9.82;4.28;;;;;;;-144.47;35.48;52993.13;5051890;28;20112;-68
2022/08/09 10:01:32;;;;;;;10.68;3.90;;;;;;;-144.47;35.46;53015.00;5051728;28;20347;-65
2022/08/09 10:03:58;;;;;;;19.30;3.70;;;;;;;-144.47;35.00;53020.94;5053164;28;20035;-68
2022/08/09 10:06:25;;;;;;;11.10;3.55;;;;;;;-144.47;34.58;53034.84;5050522;28;20025;-68
2022/08/09 10:08:59;;;;;;;11.07;3.85;;;;;;;-144.47;34.57;52979.22;5050344;28;20131;-67
2022/08/09 10:11:26;;;;;;;16.40;3.55;;;;;;;-144.47;34.54;52991.16;5052076;28;20065;-68
2022/08/09 10:13:52;;;;;;;15.45;3.08;;;;;;;-144.47;34.22;53005.06;5034020;28;20437;-67
2022/08/09 10:16:37;;;;;;;11.27;3.50;;;;;;;-144.47;34.07;53046.75;5051523;28;20513;-69
2022/08/09 10:19:07;;;;;;;16.58;4.38;;;;;;;-144.47;33.85;52985.19;5054348;28;20028;-69
2022/08/09 10:21:34;;;;;;;12.88;3.85;;;;;;;-144.47;34.11;52987.19;5052913;28;20630;-68
2022/08/09 10:24:02;;;;;;;8.75;3.55;;;;;;;-144.47;33.89;52989.16;5051171;28;20025;-68
2022/08/09 10:26:28;;;;;;;9.50;3.30;;;;;;;-144.47;33.58;53005.06;5051063;28;20017;-68
2022/08/09 10:28:54;;;;;;;6.75;3.10;;;;;;;-144.47;33.45;53009.03;5051681;28;20029;-69
2022/08/09 10:31:20;;;;;;;7.43;3.00;;;;;;;-144.47;33.05;53015.00;5030948;28;20017;-68
2022/08/09 10:33:46;;;;;;;14.77;3.78;;;;;;;-144.47;32.90;53018.97;5048336;28;20494;-69
2022/08/09 10:36:13;;;;;;;16.92;3.38;;;;;;;-144.47;32.83;53007.03;5048923;28;20070;-68
2022/08/09 10:38:41;;;;;;;15.73;3.58;;;;;;;-144.47;33.00;53009.03;5037633;28;20017;-69
2022/08/09 10:41:07;;;;;;;13.68;3.42;;;;;;;-144.47;32.79;52977.25;5047035;28;20036;-67
2022/08/09 10:43:35;;;;;;;7.15;2.65;;;;;;;-144.47;32.88;52991.16;5027592;28;20025;-70
2022/08/09 10:46:16;;;;;;;12.52;2.70;;;;;;;-144.47;32.36;53015.00;5071156;28;20103;-71
2022/08/09 10:48:52;;;;;;;16.42;2.80;;;;;;;-144.47;31.78;52943.47;5071984;28;20034;-68
2022/08/09 10:51:43;;;;;;;7.32;2.88;;;;;;;-144.47;31.41;53016.97;5023624;28;20199;-67
2022/08/09 10:54:11;;;;;;;6.53;2.53;;;;;;;-144.47;31.38;52989.16;5050477;28;20028;-67
2022/08/09 10:56:38;;;;;;;10.02;2.60;;;;;;;-144.47;31.23;52979.22;5050571;28;20025;-66
2022/08/09 10:59:22;;;;;;;5.40;2.60;;;;;;;-144.47;31.09;52953.41;5051290;28;20036;-68
2022/08/09 11:01:48;;;;;;;8.45;2.35;;;;;;;-144.47;31.10;53016.97;5051270;28;20035;-68
2022/08/09 11:04:13;;;;;;;11.75;3.50;;;;;;;-144.47;30.99;52983.22;5052627;28;20105;-71
2022/08/09 11:06:41;;;;;;;4.10;2.40;;;;;;;-144.47;30.63;52961.34;5054083;28;20017;-70
2022/08/09 11:09:08;;;;;;;5.78;2.40;;;;;;;-144.47;30.71;52993.13;5050097;28;20031;-67
2022/08/09 11:11:53;;;;;;;10.02;2.85;;;;;;;-144.47;30.56;52941.50;5050363;28;20082;-69
2022/08/09 11:14:32;;;;;;;5.43;2.38;;;;;;;-144.47;29.95;52947.47;5049819;28;20052;-70
2022/08/09 11:16:58;;;;;;;4.68;2.53;;;;;;;-144.47;29.81;52971.28;5047974;28;20032;-70
2022/08/09 11:19:54;;;;;;;9.98;2.60;;;;;;;-144.47;29.73;52945.47;5027710;28;20016;-68
2022/08/09 11:22:41;;;;;;;7.75;2.60;;;;;;;-144.47;29.70;52933.56;5049414;28;20027;-68
2022/08/09 11:25:06;;;;;;;9.13;2.50;;;;;;;-144.47;29.57;52983.22;5061535;28;20039;-68
2022/08/09 11:28:07;;;;;;;5.32;2.47;;;;;;;-144.47;29.39;53005.06;5033357;28;20028;-71
2022/08/09 11:30:34;;;;;;;9.25;2.60;;;;;;;-144.47;29.42;52951.44;5025178;28;20079;-68
2022/08/09 11:33:21;;;;;;;11.20;2.55;;;;;;;-144.47;29.42;52931.56;5051438;28;20394;-68
2022/08/09 11:35:53;;;;;;;8.35;2.70;;;;;;;-144.47;29.32;52947.47;5047360;28;20421;-70
2022/08/09 11:38:22;;;;;;;9.50;2.47;;;;;;;-144.47;29.17;52963.34;5053786;28;20036;-69
2022/08/09 11:40:48;;;;;;;5.97;2.15;;;;;;;-144.47;29.22;52941.50;5060211;28;20027;-69
2022/08/09 11:43:15;;;;;;;10.38;2.63;;;;;;;-144.47;28.88;52947.47;5066022;28;20021;-67
2022/08/09 11:45:53;;;;;;;11.70;2.40;;;;;;;-144.47;28.67;52961.34;5049458;28;20532;-70
2022/08/09 11:48:26;;;;;;;15.20;3.63;;;;;;;-144.47;28.67;52971.28;5021802;28;20265;-66
2022/08/09 11:51:00;;;;;;;6.25;2.60;;;;;;;-144.47;27.85;52951.44;5063927;28;20360;-68
2022/08/09 11:53:25;;;;;;;7.97;2.55;;;;;;;-144.47;28.47;52955.41;5055246;28;20505;-70
2022/08/09 11:55:53;;;;;;;4.90;2.50;;;;;;;-144.47;28.41;52953.41;5061786;28;20016;-69
2022/08/09 11:58:18;;;;;;;9.15;2.20;;;;;;;-144.47;27.91;52939.50;5044593;28;20033;-67
2022/08/09 12:00:50;;;;;;;5.30;2.40;;;;;;;-144.47;27.77;52951.44;5046685;28;20028;-69
2022/08/09 12:03:18;;;;;;;8.13;2.42;;;;;;;-144.47;28.07;52981.22;5055380;23;20362;-72